sensor_id;sensor_type;location;lat;lon;timestamp;P1;durP1;ratioP1;P2;durP2;ratioP2
13032;SDS011;6583;42.632;23.298;2022-09-13T00:00:28;7.47;;;5.97;;
13032;SDS011;6583;42.632;23.298;2022-09-13T00:02:55;6.40;;;5.80;;
13032;SDS011;6583;42.632;23.298;2022-09-13T00:05:22;5.83;;;5.33;;
13032;SDS011;6583;42.632;23.298;2022-09-13T00:07:50;6.83;;;5.73;;
13032;SDS011;6583;42.632;23.298;2022-09-13T00:10:17;7.00;;;5.63;;
13032;SDS011;6583;42.632;23.298;2022-09-13T00:12:44;6.93;;;6.23;;
13032;SDS011;6583;42.632;23.298;2022-09-13T00:15:11;7.00;;;5.03;;
13032;SDS011;6583;42.632;23.298;2022-09-13T00:17:37;6.87;;;5.47;;
13032;SDS011;6583;42.632;23.298;2022-09-13T00:20:04;5.80;;;5.30;;
13032;SDS011;6583;42.632;23.298;2022-09-13T00:22:32;5.90;;;5.27;;
13032;SDS011;6583;42.632;23.298;2022-09-13T00:25:00;6.27;;;5.13;;
13032;SDS011;6583;42.632;23.298;2022-09-13T00:27:26;6.27;;;5.60;;
13032;SDS011;6583;42.632;23.298;2022-09-13T00:29:53;6.03;;;5.43;;
13032;SDS011;6583;42.632;23.298;2022-09-13T00:32:20;6.30;;;5.70;;
13032;SDS011;6583;42.632;23.298;2022-09-13T00:34:46;7.40;;;5.40;;
13032;SDS011;6583;42.632;23.298;2022-09-13T00:37:13;5.60;;;5.03;;
13032;SDS011;6583;42.632;23.298;2022-09-13T00:39:39;6.53;;;5.33;;
13032;SDS011;6583;42.632;23.298;2022-09-13T00:42:09;8.20;;;5.67;;
13032;SDS011;6583;42.632;23.298;2022-09-13T00:47:23;6.97;;;5.57;;
13032;SDS011;6583;42.632;23.298;2022-09-13T00:49:53;6.20;;;5.43;;
13032;SDS011;6583;42.632;23.298;2022-09-13T00:52:23;6.70;;;6.00;;
13032;SDS011;6583;42.632;23.298;2022-09-13T00:54:54;7.30;;;5.97;;
13032;SDS011;6583;42.632;23.298;2022-09-13T00:57:25;7.40;;;5.67;;
13032;SDS011;6583;42.632;23.298;2022-09-13T00:59:55;7.03;;;6.33;;
13032;SDS011;6583;42.632;23.298;2022-09-13T01:02:31;6.50;;;5.83;;
13032;SDS011;6583;42.632;23.298;2022-09-13T01:04:58;6.13;;;5.53;;
13032;SDS011;6583;42.632;23.298;2022-09-13T01:07:25;6.23;;;5.63;;
13032;SDS011;6583;42.632;23.298;2022-09-13T01:09:52;6.73;;;5.67;;
13032;SDS011;6583;42.632;23.298;2022-09-13T01:12:25;7.20;;;6.00;;
13032;SDS011;6583;42.632;23.298;2022-09-13T01:15:00;6.60;;;5.83;;
13032;SDS011;6583;42.632;23.298;2022-09-13T01:17:30;7.33;;;5.33;;
13032;SDS011;6583;42.632;23.298;2022-09-13T01:19:58;5.37;;;4.87;;
13032;SDS011;6583;42.632;23.298;2022-09-13T01:22:46;6.47;;;5.67;;
13032;SDS011;6583;42.632;23.298;2022-09-13T01:28:36;8.53;;;5.60;;
13032;SDS011;6583;42.632;23.298;2022-09-13T01:31:28;5.53;;;5.03;;
13032;SDS011;6583;42.632;23.298;2022-09-13T01:34:07;5.30;;;4.80;;
13032;SDS011;6583;42.632;23.298;2022-09-13T01:36:49;5.23;;;4.73;;
13032;SDS011;6583;42.632;23.298;2022-09-13T01:39:39;7.47;;;5.30;;
13032;SDS011;6583;42.632;23.298;2022-09-13T01:42:21;7.70;;;5.73;;
13032;SDS011;6583;42.632;23.298;2022-09-13T01:45:05;5.67;;;5.17;;
13032;SDS011;6583;42.632;23.298;2022-09-13T01:47:47;6.30;;;5.70;;
13032;SDS011;6583;42.632;23.298;2022-09-13T01:50:19;5.50;;;5.00;;
13032;SDS011;6583;42.632;23.298;2022-09-13T01:52:53;6.07;;;5.57;;
13032;SDS011;6583;42.632;23.298;2022-09-13T01:55:24;6.57;;;5.50;;
13032;SDS011;6583;42.632;23.298;2022-09-13T01:57:57;6.60;;;5.33;;
13032;SDS011;6583;42.632;23.298;2022-09-13T02:00:31;5.60;;;5.10;;
13032;SDS011;6583;42.632;23.298;2022-09-13T02:03:05;5.97;;;4.83;;
13032;SDS011;6583;42.632;23.298;2022-09-13T02:05:38;5.27;;;4.77;;
13032;SDS011;6583;42.632;23.298;2022-09-13T02:08:11;5.87;;;5.17;;
13032;SDS011;6583;42.632;23.298;2022-09-13T02:10:41;5.77;;;5.17;;
13032;SDS011;6583;42.632;23.298;2022-09-13T02:13:13;6.27;;;5.00;;
13032;SDS011;6583;42.632;23.298;2022-09-13T02:15:43;5.33;;;4.83;;
13032;SDS011;6583;42.632;23.298;2022-09-13T02:18:15;5.40;;;4.80;;
13032;SDS011;6583;42.632;23.298;2022-09-13T02:20:46;5.55;;;5.00;;
13032;SDS011;6583;42.632;23.298;2022-09-13T02:23:17;5.10;;;4.70;;
13032;SDS011;6583;42.632;23.298;2022-09-13T02:25:49;5.17;;;4.67;;
13032;SDS011;6583;42.632;23.298;2022-09-13T02:28:20;5.60;;;5.00;;
13032;SDS011;6583;42.632;23.298;2022-09-13T02:30:56;6.23;;;5.13;;
13032;SDS011;6583;42.632;23.298;2022-09-13T02:33:26;6.60;;;4.83;;
13032;SDS011;6583;42.632;23.298;2022-09-13T02:35:58;5.50;;;5.00;;
13032;SDS011;6583;42.632;23.298;2022-09-13T02:38:29;5.70;;;5.17;;
13032;SDS011;6583;42.632;23.298;2022-09-13T02:41:00;5.93;;;4.90;;
13032;SDS011;6583;42.632;23.298;2022-09-13T02:43:34;5.87;;;4.80;;
13032;SDS011;6583;42.632;23.298;2022-09-13T02:46:10;5.17;;;4.67;;
13032;SDS011;6583;42.632;23.298;2022-09-13T02:48:48;5.40;;;4.90;;
13032;SDS011;6583;42.632;23.298;2022-09-13T02:51:24;5.97;;;4.77;;
13032;SDS011;6583;42.632;23.298;2022-09-13T02:54:00;5.20;;;4.67;;
13032;SDS011;6583;42.632;23.298;2022-09-13T02:56:38;6.67;;;4.83;;
13032;SDS011;6583;42.632;23.298;2022-09-13T02:59:12;5.77;;;5.17;;
13032;SDS011;6583;42.632;23.298;2022-09-13T03:01:41;5.73;;;5.17;;
13032;SDS011;6583;42.632;23.298;2022-09-13T03:04:14;5.80;;;5.03;;
13032;SDS011;6583;42.632;23.298;2022-09-13T03:06:41;6.27;;;5.67;;
13032;SDS011;6583;42.632;23.298;2022-09-13T03:09:08;5.70;;;5.20;;
13032;SDS011;6583;42.632;23.298;2022-09-13T03:11:39;7.63;;;4.70;;
13032;SDS011;6583;42.632;23.298;2022-09-13T03:14:25;5.40;;;4.90;;
13032;SDS011;6583;42.632;23.298;2022-09-13T03:17:06;4.90;;;4.50;;
13032;SDS011;6583;42.632;23.298;2022-09-13T03:20:00;6.50;;;5.13;;
13032;SDS011;6583;42.632;23.298;2022-09-13T03:22:41;5.07;;;4.40;;
13032;SDS011;6583;42.632;23.298;2022-09-13T03:25:26;4.73;;;4.30;;
13032;SDS011;6583;42.632;23.298;2022-09-13T03:28:17;6.13;;;4.63;;
13032;SDS011;6583;42.632;23.298;2022-09-13T03:30:52;5.83;;;4.40;;
13032;SDS011;6583;42.632;23.298;2022-09-13T03:33:27;5.13;;;4.10;;
13032;SDS011;6583;42.632;23.298;2022-09-13T03:36:01;4.80;;;4.40;;
13032;SDS011;6583;42.632;23.298;2022-09-13T03:38:36;4.47;;;4.03;;
13032;SDS011;6583;42.632;23.298;2022-09-13T03:41:08;5.20;;;3.93;;
13032;SDS011;6583;42.632;23.298;2022-09-13T03:43:40;4.70;;;4.30;;
13032;SDS011;6583;42.632;23.298;2022-09-13T03:46:13;5.70;;;4.30;;
13032;SDS011;6583;42.632;23.298;2022-09-13T03:48:43;6.13;;;4.20;;
13032;SDS011;6583;42.632;23.298;2022-09-13T03:51:11;4.53;;;3.53;;
13032;SDS011;6583;42.632;23.298;2022-09-13T03:53:41;4.50;;;4.10;;
13032;SDS011;6583;42.632;23.298;2022-09-13T03:56:11;3.90;;;3.50;;
13032;SDS011;6583;42.632;23.298;2022-09-13T03:58:39;5.30;;;4.30;;
13032;SDS011;6583;42.632;23.298;2022-09-13T04:01:06;6.27;;;4.20;;
13032;SDS011;6583;42.632;23.298;2022-09-13T04:03:34;4.53;;;4.03;;
13032;SDS011;6583;42.632;23.298;2022-09-13T04:06:01;8.40;;;3.77;;
13032;SDS011;6583;42.632;23.298;2022-09-13T04:08:29;4.30;;;3.67;;
13032;SDS011;6583;42.632;23.298;2022-09-13T04:10:56;4.83;;;3.80;;
13032;SDS011;6583;42.632;23.298;2022-09-13T04:13:23;5.20;;;3.90;;
13032;SDS011;6583;42.632;23.298;2022-09-13T04:15:51;6.07;;;3.83;;
13032;SDS011;6583;42.632;23.298;2022-09-13T04:18:18;6.63;;;3.80;;
13032;SDS011;6583;42.632;23.298;2022-09-13T04:20:52;5.97;;;3.83;;
13032;SDS011;6583;42.632;23.298;2022-09-13T04:23:19;17.77;;;4.33;;
13032;SDS011;6583;42.632;23.298;2022-09-13T04:25:47;6.20;;;3.50;;
13032;SDS011;6583;42.632;23.298;2022-09-13T04:28:15;5.67;;;3.27;;
13032;SDS011;6583;42.632;23.298;2022-09-13T04:30:42;6.27;;;3.90;;
13032;SDS011;6583;42.632;23.298;2022-09-13T04:33:09;6.77;;;3.90;;
13032;SDS011;6583;42.632;23.298;2022-09-13T04:35:36;5.60;;;3.37;;
13032;SDS011;6583;42.632;23.298;2022-09-13T04:38:03;18.10;;;6.50;;
13032;SDS011;6583;42.632;23.298;2022-09-13T04:40:30;5.67;;;3.90;;
13032;SDS011;6583;42.632;23.298;2022-09-13T04:42:58;7.30;;;4.17;;
13032;SDS011;6583;42.632;23.298;2022-09-13T04:45:26;6.50;;;3.80;;
13032;SDS011;6583;42.632;23.298;2022-09-13T04:47:52;5.57;;;3.97;;
13032;SDS011;6583;42.632;23.298;2022-09-13T04:50:20;5.53;;;4.33;;
13032;SDS011;6583;42.632;23.298;2022-09-13T04:52:48;5.83;;;3.70;;
13032;SDS011;6583;42.632;23.298;2022-09-13T04:55:15;6.33;;;3.70;;
13032;SDS011;6583;42.632;23.298;2022-09-13T04:57:41;5.27;;;3.40;;
13032;SDS011;6583;42.632;23.298;2022-09-13T05:00:10;4.00;;;3.50;;
13032;SDS011;6583;42.632;23.298;2022-09-13T05:02:37;4.43;;;3.87;;
13032;SDS011;6583;42.632;23.298;2022-09-13T05:05:04;4.70;;;3.60;;
13032;SDS011;6583;42.632;23.298;2022-09-13T05:07:31;4.87;;;3.37;;
13032;SDS011;6583;42.632;23.298;2022-09-13T05:09:57;7.30;;;4.53;;
13032;SDS011;6583;42.632;23.298;2022-09-13T05:12:24;7.30;;;4.00;;
13032;SDS011;6583;42.632;23.298;2022-09-13T05:14:51;3.97;;;3.10;;
13032;SDS011;6583;42.632;23.298;2022-09-13T05:17:19;3.87;;;3.30;;
13032;SDS011;6583;42.632;23.298;2022-09-13T05:19:45;4.20;;;3.80;;
13032;SDS011;6583;42.632;23.298;2022-09-13T05:22:13;4.23;;;3.27;;
13032;SDS011;6583;42.632;23.298;2022-09-13T05:24:40;5.93;;;3.27;;
13032;SDS011;6583;42.632;23.298;2022-09-13T05:27:07;3.90;;;3.40;;
13032;SDS011;6583;42.632;23.298;2022-09-13T05:29:34;5.33;;;3.60;;
13032;SDS011;6583;42.632;23.298;2022-09-13T05:32:00;4.60;;;3.50;;
13032;SDS011;6583;42.632;23.298;2022-09-13T05:34:29;3.83;;;3.43;;
13032;SDS011;6583;42.632;23.298;2022-09-13T05:36:56;3.40;;;3.10;;
13032;SDS011;6583;42.632;23.298;2022-09-13T05:39:23;4.00;;;3.00;;
13032;SDS011;6583;42.632;23.298;2022-09-13T05:41:49;4.93;;;3.50;;
13032;SDS011;6583;42.632;23.298;2022-09-13T05:44:16;3.67;;;3.37;;
13032;SDS011;6583;42.632;23.298;2022-09-13T05:46:45;3.33;;;3.03;;
13032;SDS011;6583;42.632;23.298;2022-09-13T05:49:12;3.40;;;3.10;;
13032;SDS011;6583;42.632;23.298;2022-09-13T05:51:41;3.47;;;3.17;;
13032;SDS011;6583;42.632;23.298;2022-09-13T05:54:09;3.50;;;3.20;;
13032;SDS011;6583;42.632;23.298;2022-09-13T05:56:37;3.60;;;3.30;;
13032;SDS011;6583;42.632;23.298;2022-09-13T05:59:03;3.57;;;3.27;;
13032;SDS011;6583;42.632;23.298;2022-09-13T06:01:30;4.23;;;3.13;;
13032;SDS011;6583;42.632;23.298;2022-09-13T06:03:57;3.80;;;3.00;;
13032;SDS011;6583;42.632;23.298;2022-09-13T06:06:24;3.57;;;3.27;;
13032;SDS011;6583;42.632;23.298;2022-09-13T06:08:53;3.97;;;3.40;;
13032;SDS011;6583;42.632;23.298;2022-09-13T06:11:21;4.30;;;3.43;;
13032;SDS011;6583;42.632;23.298;2022-09-13T06:13:49;4.47;;;3.50;;
13032;SDS011;6583;42.632;23.298;2022-09-13T06:16:17;3.70;;;3.40;;
13032;SDS011;6583;42.632;23.298;2022-09-13T06:18:44;4.63;;;3.30;;
13032;SDS011;6583;42.632;23.298;2022-09-13T06:21:12;7.68;;;4.00;;
13032;SDS011;6583;42.632;23.298;2022-09-13T06:23:41;5.05;;;3.38;;
13032;SDS011;6583;42.632;23.298;2022-09-13T06:26:10;5.47;;;3.40;;
13032;SDS011;6583;42.632;23.298;2022-09-13T06:28:38;6.95;;;2.90;;
13032;SDS011;6583;42.632;23.298;2022-09-13T06:31:06;4.38;;;3.20;;
13032;SDS011;6583;42.632;23.298;2022-09-13T06:33:35;3.42;;;3.13;;
13032;SDS011;6583;42.632;23.298;2022-09-13T06:36:03;4.72;;;3.33;;
13032;SDS011;6583;42.632;23.298;2022-09-13T06:38:32;3.30;;;3.10;;
13032;SDS011;6583;42.632;23.298;2022-09-13T06:40:59;3.50;;;3.20;;
13032;SDS011;6583;42.632;23.298;2022-09-13T06:43:28;3.42;;;3.03;;
13032;SDS011;6583;42.632;23.298;2022-09-13T06:45:58;3.63;;;3.33;;
13032;SDS011;6583;42.632;23.298;2022-09-13T06:48:25;3.85;;;3.33;;
13032;SDS011;6583;42.632;23.298;2022-09-13T06:50:52;3.42;;;3.10;;
13032;SDS011;6583;42.632;23.298;2022-09-13T06:53:22;3.47;;;3.17;;
13032;SDS011;6583;42.632;23.298;2022-09-13T06:55:58;3.75;;;3.22;;
13032;SDS011;6583;42.632;23.298;2022-09-13T06:58:25;3.33;;;3.00;;
13032;SDS011;6583;42.632;23.298;2022-09-13T07:00:55;3.17;;;2.83;;
13032;SDS011;6583;42.632;23.298;2022-09-13T07:03:31;3.40;;;3.10;;
13032;SDS011;6583;42.632;23.298;2022-09-13T07:05:57;3.25;;;2.95;;
13032;SDS011;6583;42.632;23.298;2022-09-13T07:08:24;4.55;;;3.03;;
13032;SDS011;6583;42.632;23.298;2022-09-13T07:29:45;3.00;;;2.80;;
13032;SDS011;6583;42.632;23.298;2022-09-13T07:32:12;4.45;;;3.00;;
13032;SDS011;6583;42.632;23.298;2022-09-13T07:34:39;3.58;;;3.28;;
13032;SDS011;6583;42.632;23.298;2022-09-13T07:37:05;4.78;;;3.13;;
13032;SDS011;6583;42.632;23.298;2022-09-13T07:39:32;3.00;;;2.80;;
13032;SDS011;6583;42.632;23.298;2022-09-13T07:41:59;3.25;;;2.95;;
13032;SDS011;6583;42.632;23.298;2022-09-13T07:44:25;3.25;;;2.85;;
13032;SDS011;6583;42.632;23.298;2022-09-13T07:46:53;2.30;;;2.20;;
13032;SDS011;6583;42.632;23.298;2022-09-13T07:49:20;2.65;;;2.45;;
13032;SDS011;6583;42.632;23.298;2022-09-13T07:51:47;3.20;;;2.90;;
13032;SDS011;6583;42.632;23.298;2022-09-13T07:54:15;3.15;;;2.83;;
13032;SDS011;6583;42.632;23.298;2022-09-13T07:56:43;3.10;;;2.70;;
13032;SDS011;6583;42.632;23.298;2022-09-13T07:59:10;2.75;;;2.55;;
13032;SDS011;6583;42.632;23.298;2022-09-13T08:01:39;3.13;;;2.50;;
13032;SDS011;6583;42.632;23.298;2022-09-13T08:04:09;3.95;;;2.42;;
13032;SDS011;6583;42.632;23.298;2022-09-13T08:06:37;3.13;;;2.80;;
13032;SDS011;6583;42.632;23.298;2022-09-13T08:09:06;3.33;;;2.60;;
13032;SDS011;6583;42.632;23.298;2022-09-13T08:11:35;3.28;;;2.53;;
13032;SDS011;6583;42.632;23.298;2022-09-13T08:14:03;3.25;;;2.70;;
13032;SDS011;6583;42.632;23.298;2022-09-13T08:16:30;3.15;;;2.80;;
13032;SDS011;6583;42.632;23.298;2022-09-13T08:18:59;3.30;;;3.00;;
13032;SDS011;6583;42.632;23.298;2022-09-13T08:21:31;2.80;;;2.60;;
13032;SDS011;6583;42.632;23.298;2022-09-13T08:23:59;3.58;;;2.42;;
13032;SDS011;6583;42.632;23.298;2022-09-13T08:26:26;3.25;;;2.47;;
13032;SDS011;6583;42.632;23.298;2022-09-13T08:28:56;2.58;;;2.38;;
13032;SDS011;6583;42.632;23.298;2022-09-13T08:31:24;2.67;;;2.47;;
13032;SDS011;6583;42.632;23.298;2022-09-13T08:33:52;2.97;;;2.70;;
13032;SDS011;6583;42.632;23.298;2022-09-13T08:36:20;3.70;;;2.58;;
13032;SDS011;6583;42.632;23.298;2022-09-13T08:38:50;2.70;;;2.50;;
13032;SDS011;6583;42.632;23.298;2022-09-13T08:41:32;3.00;;;2.67;;
13032;SDS011;6583;42.632;23.298;2022-09-13T08:44:17;2.75;;;2.55;;
13032;SDS011;6583;42.632;23.298;2022-09-13T08:46:51;2.75;;;2.40;;
13032;SDS011;6583;42.632;23.298;2022-09-13T08:49:24;3.35;;;2.70;;
13032;SDS011;6583;42.632;23.298;2022-09-13T08:51:55;2.35;;;2.17;;
13032;SDS011;6583;42.632;23.298;2022-09-13T08:54:26;2.72;;;2.53;;
13032;SDS011;6583;42.632;23.298;2022-09-13T08:56:54;2.22;;;2.10;;
13032;SDS011;6583;42.632;23.298;2022-09-13T08:59:32;2.50;;;2.30;;
13032;SDS011;6583;42.632;23.298;2022-09-13T09:02:18;2.00;;;1.90;;
13032;SDS011;6583;42.632;23.298;2022-09-13T09:04:55;3.15;;;2.30;;
13032;SDS011;6583;42.632;23.298;2022-09-13T09:07:28;2.60;;;2.42;;
13032;SDS011;6583;42.632;23.298;2022-09-13T09:10:01;2.45;;;2.10;;
13032;SDS011;6583;42.632;23.298;2022-09-13T09:12:32;2.42;;;2.20;;
13032;SDS011;6583;42.632;23.298;2022-09-13T09:15:05;2.33;;;2.15;;
13032;SDS011;6583;42.632;23.298;2022-09-13T09:17:42;2.17;;;2.00;;
13032;SDS011;6583;42.632;23.298;2022-09-13T09:20:17;3.30;;;2.10;;
13032;SDS011;6583;42.632;23.298;2022-09-13T09:22:49;2.25;;;2.10;;
13032;SDS011;6583;42.632;23.298;2022-09-13T09:25:20;4.20;;;2.00;;
13032;SDS011;6583;42.632;23.298;2022-09-13T09:27:50;2.45;;;1.83;;
13032;SDS011;6583;42.632;23.298;2022-09-13T09:30:18;2.72;;;1.60;;
13032;SDS011;6583;42.632;23.298;2022-09-13T09:32:47;2.30;;;2.10;;
13032;SDS011;6583;42.632;23.298;2022-09-13T09:35:28;2.53;;;2.05;;
13032;SDS011;6583;42.632;23.298;2022-09-13T09:38:07;2.50;;;2.30;;
13032;SDS011;6583;42.632;23.298;2022-09-13T09:40:47;3.05;;;2.15;;
13032;SDS011;6583;42.632;23.298;2022-09-13T09:43:16;3.83;;;3.53;;
13032;SDS011;6583;42.632;23.298;2022-09-13T09:45:51;2.70;;;2.28;;
13032;SDS011;6583;42.632;23.298;2022-09-13T09:48:20;2.25;;;2.15;;
13032;SDS011;6583;42.632;23.298;2022-09-13T09:50:52;2.20;;;2.10;;
13032;SDS011;6583;42.632;23.298;2022-09-13T09:53:23;2.10;;;2.00;;
13032;SDS011;6583;42.632;23.298;2022-09-13T09:55:56;1.95;;;1.83;;
13032;SDS011;6583;42.632;23.298;2022-09-13T09:58:35;2.08;;;1.90;;
13032;SDS011;6583;42.632;23.298;2022-09-13T10:01:04;4.45;;;2.53;;
13032;SDS011;6583;42.632;23.298;2022-09-13T10:03:40;2.22;;;2.03;;
13032;SDS011;6583;42.632;23.298;2022-09-13T10:06:07;3.40;;;2.03;;
13032;SDS011;6583;42.632;23.298;2022-09-13T10:08:37;2.50;;;2.20;;
13032;SDS011;6583;42.632;23.298;2022-09-13T10:11:08;2.65;;;2.45;;
13032;SDS011;6583;42.632;23.298;2022-09-13T10:13:36;2.50;;;2.17;;
13032;SDS011;6583;42.632;23.298;2022-09-13T10:16:04;2.20;;;2.00;;
13032;SDS011;6583;42.632;23.298;2022-09-13T10:18:33;2.03;;;1.92;;
13032;SDS011;6583;42.632;23.298;2022-09-13T10:21:03;2.00;;;1.90;;
13032;SDS011;6583;42.632;23.298;2022-09-13T10:23:31;2.50;;;2.30;;
13032;SDS011;6583;42.632;23.298;2022-09-13T10:26:09;2.22;;;2.03;;
13032;SDS011;6583;42.632;23.298;2022-09-13T10:28:42;2.20;;;2.00;;
13032;SDS011;6583;42.632;23.298;2022-09-13T10:31:12;2.65;;;1.95;;
13032;SDS011;6583;42.632;23.298;2022-09-13T10:33:41;2.88;;;1.80;;
13032;SDS011;6583;42.632;23.298;2022-09-13T10:36:17;2.30;;;2.03;;
13032;SDS011;6583;42.632;23.298;2022-09-13T10:38:49;2.45;;;2.25;;
13032;SDS011;6583;42.632;23.298;2022-09-13T10:41:25;2.47;;;2.30;;
13032;SDS011;6583;42.632;23.298;2022-09-13T10:43:56;2.28;;;2.08;;
13032;SDS011;6583;42.632;23.298;2022-09-13T10:46:24;2.10;;;2.00;;
13032;SDS011;6583;42.632;23.298;2022-09-13T10:48:55;2.22;;;2.13;;
13032;SDS011;6583;42.632;23.298;2022-09-13T10:51:30;2.50;;;2.40;;
13032;SDS011;6583;42.632;23.298;2022-09-13T10:54:06;2.45;;;2.25;;
13032;SDS011;6583;42.632;23.298;2022-09-13T10:56:45;2.50;;;2.30;;
13032;SDS011;6583;42.632;23.298;2022-09-13T10:59:14;2.63;;;2.42;;
13032;SDS011;6583;42.632;23.298;2022-09-13T11:01:55;2.80;;;2.60;;
13032;SDS011;6583;42.632;23.298;2022-09-13T11:04:55;2.80;;;2.60;;
13032;SDS011;6583;42.632;23.298;2022-09-13T11:07:41;2.63;;;2.17;;
13032;SDS011;6583;42.632;23.298;2022-09-13T11:10:18;2.70;;;2.50;;
13032;SDS011;6583;42.632;23.298;2022-09-13T11:12:56;2.65;;;2.45;;
13032;SDS011;6583;42.632;23.298;2022-09-13T11:15:31;2.50;;;2.30;;
13032;SDS011;6583;42.632;23.298;2022-09-13T11:18:13;2.58;;;2.45;;
13032;SDS011;6583;42.632;23.298;2022-09-13T11:20:51;2.20;;;2.10;;
13032;SDS011;6583;42.632;23.298;2022-09-13T11:23:33;2.15;;;2.00;;
13032;SDS011;6583;42.632;23.298;2022-09-13T11:26:16;2.20;;;2.10;;
13032;SDS011;6583;42.632;23.298;2022-09-13T11:28:54;2.55;;;2.15;;
13032;SDS011;6583;42.632;23.298;2022-09-13T11:31:34;2.78;;;2.58;;
13032;SDS011;6583;42.632;23.298;2022-09-13T11:34:10;2.35;;;2.25;;
13032;SDS011;6583;42.632;23.298;2022-09-13T11:36:57;2.60;;;2.30;;
13032;SDS011;6583;42.632;23.298;2022-09-13T11:39:44;2.40;;;2.20;;
13032;SDS011;6583;42.632;23.298;2022-09-13T11:42:21;2.20;;;2.10;;
13032;SDS011;6583;42.632;23.298;2022-09-13T11:45:07;2.00;;;1.90;;
13032;SDS011;6583;42.632;23.298;2022-09-13T11:47:47;2.53;;;2.33;;
13032;SDS011;6583;42.632;23.298;2022-09-13T11:50:24;2.17;;;2.00;;
13032;SDS011;6583;42.632;23.298;2022-09-13T11:53:07;2.03;;;1.92;;
13032;SDS011;6583;42.632;23.298;2022-09-13T11:55:52;2.00;;;1.90;;
13032;SDS011;6583;42.632;23.298;2022-09-13T11:58:24;2.20;;;2.10;;
13032;SDS011;6583;42.632;23.298;2022-09-13T12:00:59;2.10;;;2.00;;
13032;SDS011;6583;42.632;23.298;2022-09-13T12:03:30;2.33;;;2.13;;
13032;SDS011;6583;42.632;23.298;2022-09-13T12:06:04;2.20;;;2.00;;
13032;SDS011;6583;42.632;23.298;2022-09-13T12:08:37;2.28;;;2.08;;
13032;SDS011;6583;42.632;23.298;2022-09-13T12:11:08;2.20;;;2.10;;
13032;SDS011;6583;42.632;23.298;2022-09-13T12:13:39;2.03;;;1.92;;
13032;SDS011;6583;42.632;23.298;2022-09-13T12:16:12;2.53;;;2.28;;
13032;SDS011;6583;42.632;23.298;2022-09-13T12:18:43;4.07;;;2.45;;
13032;SDS011;6583;42.632;23.298;2022-09-13T12:21:14;2.00;;;1.90;;
13032;SDS011;6583;42.632;23.298;2022-09-13T12:23:45;1.90;;;1.80;;
13032;SDS011;6583;42.632;23.298;2022-09-13T12:26:19;2.17;;;2.00;;
13032;SDS011;6583;42.632;23.298;2022-09-13T12:28:50;2.15;;;2.00;;
13032;SDS011;6583;42.632;23.298;2022-09-13T12:31:22;2.20;;;2.00;;
13032;SDS011;6583;42.632;23.298;2022-09-13T12:33:51;2.33;;;2.13;;
13032;SDS011;6583;42.632;23.298;2022-09-13T12:36:30;3.78;;;2.30;;
13032;SDS011;6583;42.632;23.298;2022-09-13T12:42:42;2.35;;;2.25;;
13032;SDS011;6583;42.632;23.298;2022-09-13T12:48:41;3.72;;;1.90;;
13032;SDS011;6583;42.632;23.298;2022-09-13T12:51:21;2.35;;;1.90;;
13032;SDS011;6583;42.632;23.298;2022-09-13T12:54:10;2.53;;;2.10;;
13032;SDS011;6583;42.632;23.298;2022-09-13T12:57:01;2.35;;;2.15;;
13032;SDS011;6583;42.632;23.298;2022-09-13T13:02:35;4.10;;;2.45;;
13032;SDS011;6583;42.632;23.298;2022-09-13T13:05:13;2.22;;;2.13;;
13032;SDS011;6583;42.632;23.298;2022-09-13T13:07:49;2.58;;;2.38;;
13032;SDS011;6583;42.632;23.298;2022-09-13T13:10:23;3.28;;;2.40;;
13032;SDS011;6583;42.632;23.298;2022-09-13T13:12:52;4.78;;;2.50;;
13032;SDS011;6583;42.632;23.298;2022-09-13T13:18:22;2.20;;;2.00;;
13032;SDS011;6583;42.632;23.298;2022-09-13T13:21:05;2.05;;;1.95;;
13032;SDS011;6583;42.632;23.298;2022-09-13T13:26:50;3.28;;;2.47;;
13032;SDS011;6583;42.632;23.298;2022-09-13T13:29:19;2.15;;;1.73;;
13032;SDS011;6583;42.632;23.298;2022-09-13T13:34:40;3.65;;;2.00;;
13032;SDS011;6583;42.632;23.298;2022-09-13T13:37:25;4.28;;;2.40;;
13032;SDS011;6583;42.632;23.298;2022-09-13T13:40:21;3.80;;;2.17;;
13032;SDS011;6583;42.632;23.298;2022-09-13T13:42:50;4.22;;;2.10;;
13032;SDS011;6583;42.632;23.298;2022-09-13T13:45:36;2.47;;;2.28;;
13032;SDS011;6583;42.632;23.298;2022-09-13T13:53:44;4.43;;;2.63;;
13032;SDS011;6583;42.632;23.298;2022-09-13T13:56:24;3.13;;;2.50;;
13032;SDS011;6583;42.632;23.298;2022-09-13T13:58:57;3.35;;;3.05;;
13032;SDS011;6583;42.632;23.298;2022-09-13T14:01:31;3.10;;;2.90;;
13032;SDS011;6583;42.632;23.298;2022-09-13T14:07:31;3.17;;;2.70;;
13032;SDS011;6583;42.632;23.298;2022-09-13T14:10:18;2.67;;;2.47;;
13032;SDS011;6583;42.632;23.298;2022-09-13T14:12:55;3.25;;;3.05;;
13032;SDS011;6583;42.632;23.298;2022-09-13T14:15:47;3.42;;;3.08;;
13032;SDS011;6583;42.632;23.298;2022-09-13T14:18:27;3.20;;;3.00;;
13032;SDS011;6583;42.632;23.298;2022-09-13T14:21:16;3.05;;;2.85;;
13032;SDS011;6583;42.632;23.298;2022-09-13T14:23:45;3.83;;;3.10;;
13032;SDS011;6583;42.632;23.298;2022-09-13T14:26:13;3.35;;;3.15;;
13032;SDS011;6583;42.632;23.298;2022-09-13T14:28:40;3.20;;;2.90;;
13032;SDS011;6583;42.632;23.298;2022-09-13T14:31:13;3.63;;;2.95;;
13032;SDS011;6583;42.632;23.298;2022-09-13T14:33:43;3.33;;;2.92;;
13032;SDS011;6583;42.632;23.298;2022-09-13T14:36:15;2.85;;;2.65;;
13032;SDS011;6583;42.632;23.298;2022-09-13T14:38:45;2.90;;;2.70;;
13032;SDS011;6583;42.632;23.298;2022-09-13T14:41:16;3.00;;;2.80;;
13032;SDS011;6583;42.632;23.298;2022-09-13T14:43:45;3.50;;;2.90;;
13032;SDS011;6583;42.632;23.298;2022-09-13T14:46:13;3.10;;;2.80;;
13032;SDS011;6583;42.632;23.298;2022-09-13T14:48:45;3.25;;;2.95;;
13032;SDS011;6583;42.632;23.298;2022-09-13T14:51:17;3.15;;;2.95;;
13032;SDS011;6583;42.632;23.298;2022-09-13T14:53:49;2.83;;;2.63;;
13032;SDS011;6583;42.632;23.298;2022-09-13T14:56:22;3.10;;;2.90;;
13032;SDS011;6583;42.632;23.298;2022-09-13T14:58:57;4.28;;;3.17;;
13032;SDS011;6583;42.632;23.298;2022-09-13T15:01:27;3.45;;;3.15;;
13032;SDS011;6583;42.632;23.298;2022-09-13T15:03:56;3.10;;;2.90;;
13032;SDS011;6583;42.632;23.298;2022-09-13T15:06:25;3.30;;;3.10;;
13032;SDS011;6583;42.632;23.298;2022-09-13T15:08:55;3.45;;;3.20;;
13032;SDS011;6583;42.632;23.298;2022-09-13T15:11:34;3.40;;;3.10;;
13032;SDS011;6583;42.632;23.298;2022-09-13T15:14:08;3.53;;;3.15;;
13032;SDS011;6583;42.632;23.298;2022-09-13T15:16:47;3.45;;;3.25;;
13032;SDS011;6583;42.632;23.298;2022-09-13T15:19:26;4.43;;;3.42;;
13032;SDS011;6583;42.632;23.298;2022-09-13T15:22:01;3.22;;;3.00;;
13032;SDS011;6583;42.632;23.298;2022-09-13T15:24:29;3.25;;;3.05;;
13032;SDS011;6583;42.632;23.298;2022-09-13T15:27:03;2.95;;;2.72;;
13032;SDS011;6583;42.632;23.298;2022-09-13T15:29:32;3.20;;;2.90;;
13032;SDS011;6583;42.632;23.298;2022-09-13T15:32:02;3.75;;;3.50;;
13032;SDS011;6583;42.632;23.298;2022-09-13T15:34:29;3.40;;;3.20;;
13032;SDS011;6583;42.632;23.298;2022-09-13T15:37:09;3.35;;;3.10;;
13032;SDS011;6583;42.632;23.298;2022-09-13T15:39:41;3.65;;;3.30;;
13032;SDS011;6583;42.632;23.298;2022-09-13T15:42:13;3.00;;;2.80;;
13032;SDS011;6583;42.632;23.298;2022-09-13T15:44:41;3.55;;;3.30;;
13032;SDS011;6583;42.632;23.298;2022-09-13T15:47:08;3.33;;;3.13;;
13032;SDS011;6583;42.632;23.298;2022-09-13T15:49:37;3.90;;;2.90;;
13032;SDS011;6583;42.632;23.298;2022-09-13T15:52:05;3.20;;;3.00;;
13032;SDS011;6583;42.632;23.298;2022-09-13T15:54:34;4.15;;;3.60;;
13032;SDS011;6583;42.632;23.298;2022-09-13T15:57:04;3.20;;;2.90;;
13032;SDS011;6583;42.632;23.298;2022-09-13T15:59:35;3.60;;;3.30;;
13032;SDS011;6583;42.632;23.298;2022-09-13T16:02:07;3.03;;;2.83;;
13032;SDS011;6583;42.632;23.298;2022-09-13T16:04:42;5.28;;;3.72;;
13032;SDS011;6583;42.632;23.298;2022-09-13T16:07:09;4.15;;;3.50;;
13032;SDS011;6583;42.632;23.298;2022-09-13T16:09:36;3.67;;;3.38;;